Ukiah, CA (95418)

8:12 PM PDT on August 03, 2015 (GMT -0700)
Ukiah Rogina Hights | | Change Station
CLOSE
Current Station
Personal Weather Station
Location: Ukiah, CA
Elevation: 965 ft
Nearby Weather Stations

Elev 965 ft 39.15 °N, 123.17 °W | Updated 10 minutes ago

Clear
Clear
72.0 °F
Feels Like 76 °F
N
5.0
Wind Variable Wind from NNE
Gusts 13.0 mph

Today
High -- | Low -- °F
--% Chance of Precip.
Yesterday
High -- | Low -- °F
Precip. -- in
6:14 AM 8:22 PM
Waning Gibbous, 82% visible
Pressure 29.89 in
Visibility 10.0 miles
Clouds Clear
Heat Index 76 °F
Dew Point 57 °F
Humidity 59%
Rainfall 0.00 in
Snow Depth Not available.
UV 0 out of 12
Pollen 5.10 out of 12
Air Quality Not available.
Flu Activity Not available.
METAR KUKI 040256Z AUTO 31007KT 240V030 10SM CLR 23/12 A2991 RMK AO2 SLP120 T02280122 53014

More Conditions Fewer Conditions

Pressure 29.89 in
Visibility 10.0 miles
Clouds Clear
Heat Index 76 °F
Dew Point 57 °F
Humidity 59%
Rainfall 0.00 in
Snow Depth Not available.
UV 0 out of 12
Pollen 5.10 out of 12
Air Quality Not available.
Flu Activity Not available.
METAR KUKI 040256Z AUTO 31007KT 240V030 10SM CLR 23/12 A2991 RMK AO2 SLP120 T02280122 53014

More Conditions Fewer Conditions

10-Day Weather Forecast

×

Almanac

Astronomy

Aug. 03, 2015 Rise Set
Actual Time
Civil Twilight
Nautical Twilight
Astronomical Twilight
Moon
Length of Visible Light
Length of Day
Tomorrow will be .
, % of the Moon is Illuminated

Today's Extremes

State Highs State Lows

Community

WunderPhotos

Upload Photos

1,843,842 photos uploaded!

WunderBlogs® & News

Nearby

Air Quality

  Air Quality AQ Index Pollutant
Not available.

Snow Depth

Station Depth Elevation

Earthquake Activity

City Distance Mag. Time & Date
Minimum magnitude displayed is 2.5.

Coastal Water Temperatures

Place Temperature

Stations

Nearby Weather Stations

Station Location Temp. Windchill Dew Point Humidity Wind Precip. Elev Updated Type